Time;durP1;ratioP1;P1;durP2;ratioP2;P2;SDS_P1;SDS_P2;PMS_P1;PMS_P2;Temp;Humidity;BMP_temperature;BMP_pressure;BME280_temperature;BME280_humidity;BME280_pressure;Samples;Min_cycle;Max_cycle;Signal;HPM_P1;HPM_P2
2022/06/01 00:01:11;;;;;;;;;;;11.80;99.90;;;;;;10244479;28;85017;-60
2022/06/01 00:06:12;;;;;;;;;;;11.90;93.40;;;;;;10276379;28;84072;-61
2022/06/01 00:11:12;;;;;;;;;;;11.80;98.20;;;;;;10272434;28;85196;-60
2022/06/01 00:16:13;;;;;;;;;;;11.80;71.20;;;;;;10260544;28;84835;-55
2022/06/01 00:21:13;;;;;;;;;;;11.90;65.90;;;;;;10269896;28;86108;-60
2022/06/01 00:26:14;;;;;;;;;;;11.80;81.50;;;;;;10259439;28;85194;-61
2022/06/01 00:31:14;;;;;;;;;;;11.70;99.90;;;;;;10268433;28;84778;-60
2022/06/01 00:36:15;;;;;;;;;;;11.70;95.80;;;;;;10280287;28;84322;-60
2022/06/01 00:41:18;;;;;;;;;;;11.70;99.90;;;;;;10265889;28;86088;-59
2022/06/01 00:46:18;;;;;;;;;;;11.80;99.90;;;;;;10278976;28;85308;-61
2022/06/01 00:51:21;;;;;;;;;;;11.70;99.90;;;;;;10279001;28;84227;-60
2022/06/01 00:56:32;;;;;;;;;;;11.60;99.90;;;;;;10289744;28;84003;-58
2022/06/01 01:01:33;;;;;;;;;;;11.60;99.90;;;;;;10289107;28;84312;-60
2022/06/01 01:06:39;;;;;;;;;;;11.50;99.90;;;;;;10295702;28;86417;-60
2022/06/01 01:11:47;;;;;;;;;;;11.50;99.90;;;;;;10287510;28;84119;-62
2022/06/01 01:16:48;;;;;;;;;;;11.50;99.90;;;;;;10287988;28;84834;-61
2022/06/01 01:22:07;;;;;;;;;;;11.50;99.90;;;;;;10266784;28;84985;-59
2022/06/01 01:27:07;;;;;;;;;;;11.50;99.90;;;;;;10248506;28;84098;-62
2022/06/01 01:32:10;;;;;;;;;;;11.50;99.90;;;;;;10267530;28;85042;-63
2022/06/01 01:37:17;;;;;;;;;;;11.50;99.90;;;;;;10288770;28;85038;-63
2022/06/01 01:42:19;;;;;;;;;;;11.40;99.90;;;;;;10265107;28;84313;-61
2022/06/01 01:47:19;;;;;;;;;;;11.30;99.90;;;;;;10248127;28;84662;-61
2022/06/01 01:52:20;;;;;;;;;;;11.30;99.90;;;;;;10247301;28;84942;-64
2022/06/01 01:57:30;;;;;;;;;;;11.20;99.90;;;;;;10287772;28;84792;-63
2022/06/01 02:02:37;;;;;;;;;;;11.30;99.90;;;;;;10285600;28;84128;-62
2022/06/01 02:07:41;;;;;;;;;;;11.20;99.90;;;;;;10229284;28;87235;-63
2022/06/01 02:12:41;;;;;;;;;;;11.20;99.90;;;;;;10249148;28;85370;-61
2022/06/01 02:17:50;;;;;;;;;;;11.10;99.90;;;;;;10269571;28;84132;-60
2022/06/01 02:22:51;;;;;;;;;;;11.20;99.90;;;;;;10282313;28;84928;-60
2022/06/01 02:27:54;;;;;;;;;;;11.10;99.90;;;;;;10253181;28;84042;-63
2022/06/01 02:32:55;;;;;;;;;;;11.10;99.90;;;;;;10257989;28;84983;-58
2022/06/01 02:37:57;;;;;;;;;;;11.10;99.90;;;;;;10273420;28;85698;-57
2022/06/01 02:42:58;;;;;;;;;;;11.10;99.90;;;;;;10291302;28;84905;-61
2022/06/01 02:52:59;;;;;;;;;;;11.20;99.90;;;;;;10369003;28;84761;-51
2022/06/01 02:58:00;;;;;;;;;;;11.30;99.90;;;;;;10371897;28;86498;-52
2022/06/01 03:03:02;;;;;;;;;;;11.30;99.90;;;;;;10366596;28;84134;-50
2022/06/01 03:08:02;;;;;;;;;;;11.30;99.90;;;;;;10312915;28;85005;-51
2022/06/01 03:13:04;;;;;;;;;;;11.30;99.90;;;;;;10335131;28;84818;-48
2022/06/01 03:18:05;;;;;;;;;;;11.30;99.90;;;;;;10371677;28;84226;-51
2022/06/01 03:23:05;;;;;;;;;;;11.30;99.90;;;;;;10348783;28;84965;-51
2022/06/01 03:28:06;;;;;;;;;;;11.20;99.90;;;;;;10313489;28;86060;-47
2022/06/01 03:33:07;;;;;;;;;;;11.10;99.90;;;;;;10345500;28;85048;-49
2022/06/01 03:38:08;;;;;;;;;;;11.10;99.90;;;;;;10354444;28;84317;-53
2022/06/01 03:43:09;;;;;;;;;;;11.10;99.90;;;;;;10370733;28;84469;-49
2022/06/01 03:48:10;;;;;;;;;;;11.10;99.90;;;;;;10370008;28;85009;-52
2022/06/01 03:53:11;;;;;;;;;;;11.20;99.90;;;;;;10365095;28;84260;-55
2022/06/01 03:58:12;;;;;;;;;;;11.30;99.90;;;;;;10336026;28;84981;-52
2022/06/01 04:03:13;;;;;;;;;;;11.30;99.90;;;;;;10340494;28;84158;-49
2022/06/01 04:08:14;;;;;;;;;;;11.40;99.90;;;;;;10356601;28;85021;-50
2022/06/01 04:13:15;;;;;;;;;;;11.50;99.90;;;;;;10346192;28;85984;-50
2022/06/01 04:18:15;;;;;;;;;;;11.40;99.90;;;;;;10325262;28;84054;-56
2022/06/01 04:23:16;;;;;;;;;;;11.50;99.90;;;;;;10333137;28;84284;-54
2022/06/01 04:28:16;;;;;;;;;;;11.50;99.90;;;;;;10370282;28;84003;-51
2022/06/01 04:33:18;;;;;;;;;;;11.40;99.90;;;;;;10364690;28;84886;-49
2022/06/01 04:38:18;;;;;;;;;;;11.40;99.90;;;;;;10293649;28;84086;-53
2022/06/01 04:43:20;;;;;;;;;;;11.40;99.90;;;;;;10331013;28;84220;-52
2022/06/01 04:48:22;;;;;;;;;;;11.50;99.90;;;;;;10368465;28;85022;-51
2022/06/01 04:53:23;;;;;;;;;;;11.50;99.90;;;;;;10362211;28;86668;-53
2022/06/01 04:58:23;;;;;;;;;;;11.60;99.90;;;;;;10309675;28;84180;-54
2022/06/01 05:03:24;;;;;;;;;;;11.60;99.90;;;;;;10332646;28;84928;-53
2022/06/01 05:08:24;;;;;;;;;;;11.70;99.90;;;;;;10368157;28;85009;-50
2022/06/01 05:13:25;;;;;;;;;;;11.90;99.90;;;;;;10362853;28;84966;-51
2022/06/01 05:18:25;;;;;;;;;;;12.10;99.90;;;;;;10326755;28;84014;-52
2022/06/01 05:23:26;;;;;;;;;;;12.20;99.90;;;;;;10332292;28;84130;-50
2022/06/01 05:28:28;;;;;;;;;;;12.40;92.40;;;;;;10367452;28;85332;-51
2022/06/01 05:33:28;;;;;;;;;;;12.50;22.80;;;;;;10362989;28;84166;-51
2022/06/01 05:38:29;;;;;;;;;;;12.50;33.10;;;;;;10320701;28;85066;-56
2022/06/01 05:43:30;;;;;;;;;;;12.40;30.50;;;;;;10327607;28;84731;-49
2022/06/01 05:48:30;;;;;;;;;;;12.30;44.80;;;;;;10324946;28;84913;-49
2022/06/01 05:53:31;;;;;;;;;;;12.40;21.50;;;;;;10324535;28;85064;-53
2022/06/01 05:58:32;;;;;;;;;;;12.70;1.00;;;;;;10326025;28;84927;-51
2022/06/01 06:03:33;;;;;;;;;;;13.00;1.00;;;;;;10326830;28;84948;-54
2022/06/01 06:08:34;;;;;;;;;;;13.20;1.00;;;;;;10317592;28;87229;-54
2022/06/01 06:13:35;;;;;;;;;;;13.30;1.00;;;;;;10311435;28;84955;-55
2022/06/01 06:18:36;;;;;;;;;;;13.40;1.00;;;;;;10327374;28;84108;-51
2022/06/01 06:23:37;;;;;;;;;;;13.70;1.00;;;;;;10345877;28;84101;-50
2022/06/01 06:28:38;;;;;;;;;;;13.80;1.00;;;;;;10342890;28;84587;-51
2022/06/01 06:33:40;;;;;;;;;;;14.00;1.00;;;;;;10325478;28;85383;-53
2022/06/01 06:38:41;;;;;;;;;;;14.20;1.00;;;;;;10345538;28;84321;-52
2022/06/01 06:43:42;;;;;;;;;;;14.40;1.00;;;;;;10323351;28;85630;-54
2022/06/01 06:48:43;;;;;;;;;;;14.60;1.00;;;;;;10294047;28;87141;-52
2022/06/01 06:53:44;;;;;;;;;;;14.70;1.00;;;;;;10282142;28;84751;-52
2022/06/01 06:58:45;;;;;;;;;;;15.00;1.00;;;;;;10282876;28;84909;-55
2022/06/01 07:03:45;;;;;;;;;;;15.40;1.00;;;;;;10281453;28;84872;-54
2022/06/01 07:08:47;;;;;;;;;;;15.40;1.00;;;;;;10279653;28;84452;-53
2022/06/01 07:13:48;;;;;;;;;;;15.70;1.00;;;;;;10287838;28;84267;-50
2022/06/01 07:18:49;;;;;;;;;;;15.90;1.00;;;;;;10288037;28;85083;-49
2022/06/01 07:23:51;;;;;;;;;;;15.90;1.00;;;;;;10288576;28;84262;-53
2022/06/01 07:28:52;;;;;;;;;;;15.80;1.00;;;;;;10286501;28;85100;-50
2022/06/01 07:33:53;;;;;;;;;;;16.50;99.90;;;;;;10289450;28;84894;-51
2022/06/01 07:44:12;;;;;;;;;;;17.00;1.00;;;;;;10306664;28;84295;-50
2022/06/01 07:49:13;;;;;;;;;;;17.20;1.00;;;;;;10327464;28;88239;-51
2022/06/01 07:54:14;;;;;;;;;;;18.00;1.00;;;;;;10348595;28;84943;-47
2022/06/01 07:59:15;;;;;;;;;;;18.20;99.90;;;;;;10330473;28;84260;-51
2022/06/01 08:04:16;;;;;;;;;;;18.10;1.00;;;;;;10310062;28;85431;-48
2022/06/01 08:09:16;;;;;;;;;;;18.10;1.00;;;;;;10326273;28;84062;-47
2022/06/01 08:14:17;;;;;;;;;;;18.40;99.90;;;;;;10329046;28;84080;-51
2022/06/01 08:19:18;;;;;;;;;;;17.90;1.00;;;;;;10309876;28;86265;-47
2022/06/01 08:24:19;;;;;;;;;;;18.20;1.00;;;;;;10343569;28;84466;-51
2022/06/01 08:29:19;;;;;;;;;;;19.10;99.90;;;;;;10334249;28;84748;-48
2022/06/01 08:34:20;;;;;;;;;;;18.90;48.90;;;;;;10330957;28;84107;-47
2022/06/01 08:39:21;;;;;;;;;;;18.00;1.00;;;;;;10337106;28;84856;-48
2022/06/01 08:44:21;;;;;;;;;;;17.70;99.90;;;;;;10337624;28;85126;-47
2022/06/01 08:49:24;;;;;;;;;;;18.10;1.00;;;;;;10335649;22;84856;-57
2022/06/01 08:54:25;;;;;;;;;;;18.60;92.60;;;;;;10315930;28;84355;-58
2022/06/01 08:59:45;;;;;;;;;;;20.00;1.00;;;;;;10320787;28;85080;-58
2022/06/01 09:04:49;;;;;;;;;;;20.90;1.00;;;;;;10322737;28;84895;-54
2022/06/01 09:09:59;;;;;;;;;;;21.50;99.90;;;;;;10324361;28;84020;-56
2022/06/01 09:15:03;;;;;;;;;;;22.10;1.00;;;;;;10325810;28;84268;-55
2022/06/01 09:25:32;;;;;;;;;;;21.80;1.00;;;;;;10325835;28;84232;-61
2022/06/01 09:30:34;;;;;;;;;;;21.30;1.00;;;;;;10321124;28;104877;-54
2022/06/01 09:35:37;;;;;;;;;;;20.50;1.00;;;;;;10321833;28;84663;-55
2022/06/01 09:40:37;;;;;;;;;;;20.10;1.00;;;;;;10319692;28;85066;-57
2022/06/01 09:45:38;;;;;;;;;;;21.60;1.00;;;;;;10321288;28;84159;-54
2022/06/01 09:50:41;;;;;;;;;;;22.60;99.90;;;;;;10320932;28;84912;-54
2022/06/01 09:56:02;;;;;;;;;;;23.30;99.90;;;;;;10323334;28;84431;-55
2022/06/01 10:06:48;;;;;;;;;;;21.40;99.90;;;;;;10235600;28;84985;-56
2022/06/01 10:11:49;;;;;;;;;;;21.60;99.90;;;;;;10304286;28;85089;-56
2022/06/01 10:16:56;;;;;;;;;;;21.20;99.90;;;;;;10323721;28;84058;-55
2022/06/01 10:22:02;;;;;;;;;;;21.70;99.90;;;;;;10317325;28;84993;-54
2022/06/01 10:27:03;;;;;;;;;;;23.10;28.70;;;;;;10322309;28;85526;-56
2022/06/01 10:32:12;;;;;;;;;;;22.80;1.00;;;;;;10324950;28;85389;-54
2022/06/01 10:37:18;;;;;;;;;;;23.00;1.00;;;;;;10322350;28;86560;-56
2022/06/01 10:43:16;;;;;;;;;;;23.50;1.00;;;;;;10325561;28;85043;-58
2022/06/01 10:47:47;;;;;;;;;;;24.90;1.00;;;;;;10314420;28;85923;-56
2022/06/01 10:52:56;;;;;;;;;;;24.80;1.00;;;;;;10333362;28;84280;-61
2022/06/01 10:57:58;;;;;;;;;;;24.90;1.00;;;;;;10331680;28;85061;-56
2022/06/01 11:03:17;;;;;;;;;;;25.20;1.00;;;;;;10334614;28;84050;-57
2022/06/01 11:08:17;;;;;;;;;;;26.10;1.00;;;;;;10326124;28;85762;-56
2022/06/01 11:13:37;;;;;;;;;;;26.80;99.90;;;;;;10332885;28;85063;-55
2022/06/01 11:18:56;;;;;;;;;;;25.10;99.90;;;;;;10327489;28;84915;-57
2022/06/01 11:24:11;;;;;;;;;;;23.80;99.90;;;;;;10331703;28;85082;-58
2022/06/01 11:29:30;;;;;;;;;;;21.40;1.00;;;;;;10325954;28;84239;-52
2022/06/01 11:34:57;;;;;;;;;;;19.90;1.00;;;;;;10326194;28;86542;-54
2022/06/01 11:40:01;;;;;;;;;;;19.40;99.90;;;;;;10324267;28;84102;-54
2022/06/01 11:45:09;;;;;;;;;;;18.80;1.00;;;;;;10327984;28;84665;-56
2022/06/01 11:50:10;;;;;;;;;;;18.30;1.00;;;;;;10326673;28;84770;-56
2022/06/01 11:55:20;;;;;;;;;;;18.10;1.00;;;;;;10328538;28;84432;-56
2022/06/01 12:00:32;;;;;;;;;;;18.00;99.90;;;;;;10325408;28;84248;-56
2022/06/01 12:05:39;;;;;;;;;;;17.90;99.90;;;;;;10323421;28;84902;-54
2022/06/01 12:10:56;;;;;;;;;;;18.10;99.90;;;;;;10327165;28;84973;-59
2022/06/01 12:16:03;;;;;;;;;;;19.00;99.90;;;;;;10329261;28;84482;-58
2022/06/01 12:21:18;;;;;;;;;;;20.50;24.50;;;;;;10339269;28;85391;-58
2022/06/01 12:31:53;;;;;;;;;;;23.10;1.00;;;;;;10324534;28;84380;-54
2022/06/01 12:37:12;;;;;;;;;;;23.30;1.00;;;;;;10326856;28;84778;-55
2022/06/01 12:42:25;;;;;;;;;;;22.60;99.90;;;;;;10325509;28;84904;-55
2022/06/01 12:47:33;;;;;;;;;;;21.50;1.00;;;;;;10325530;28;84440;-55
2022/06/01 12:52:34;;;;;;;;;;;19.40;1.00;;;;;;10327522;28;84725;-52
2022/06/01 12:57:41;;;;;;;;;;;18.00;1.00;;;;;;10327931;28;84146;-54
2022/06/01 13:02:42;;;;;;;;;;;16.90;1.00;;;;;;10328501;28;84232;-51
2022/06/01 13:07:46;;;;;;;;;;;15.90;1.00;;;;;;10328271;28;84374;-54
2022/06/01 13:12:46;;;;;;;;;;;15.30;1.00;;;;;;10325677;28;84267;-53
2022/06/01 13:17:48;;;;;;;;;;;14.80;1.00;;;;;;10327693;28;84261;-55
2022/06/01 13:22:50;;;;;;;;;;;14.60;1.00;;;;;;10327045;28;85224;-56
2022/06/01 13:27:52;;;;;;;;;;;14.40;1.00;;;;;;10327006;28;84920;-53
2022/06/01 13:32:52;;;;;;;;;;;14.40;1.00;;;;;;10325900;28;85102;-49
2022/06/01 13:37:55;;;;;;;;;;;14.60;1.00;;;;;;10321466;28;84994;-55
2022/06/01 13:43:11;;;;;;;;;;;15.10;1.00;;;;;;10323843;28;84233;-54
2022/06/01 13:48:16;;;;;;;;;;;16.10;39.60;;;;;;10324599;28;84902;-55
2022/06/01 13:53:17;;;;;;;;;;;16.70;1.00;;;;;;10326818;28;84800;-54
2022/06/01 13:58:20;;;;;;;;;;;16.80;1.00;;;;;;10323022;28;85071;-58
2022/06/01 14:03:30;;;;;;;;;;;16.80;1.00;;;;;;10320052;28;85288;-60
2022/06/01 14:08:31;;;;;;;;;;;17.10;1.00;;;;;;10321038;28;87153;-60
2022/06/01 14:13:43;;;;;;;;;;;17.70;1.00;;;;;;10321965;28;85368;-60
2022/06/01 14:18:54;;;;;;;;;;;18.20;99.90;;;;;;10321778;28;84302;-60
2022/06/01 14:23:55;;;;;;;;;;;18.50;99.90;;;;;;10333600;28;85974;-58
2022/06/01 14:28:55;;;;;;;;;;;18.50;1.00;;;;;;10338563;28;84246;-59
2022/06/01 14:33:56;;;;;;;;;;;18.10;99.90;;;;;;10336091;28;84336;-56
2022/06/01 14:38:58;;;;;;;;;;;17.70;99.90;;;;;;10336516;28;84273;-56
2022/06/01 14:44:00;;;;;;;;;;;17.60;99.90;;;;;;10332188;28;84268;-57
2022/06/01 14:49:01;;;;;;;;;;;17.80;99.90;;;;;;10352259;22;86097;-47
2022/06/01 14:54:03;;;;;;;;;;;18.10;99.90;;;;;;10314407;28;84909;-48
2022/06/01 14:59:05;;;;;;;;;;;18.20;99.90;;;;;;10333245;28;84352;-48
2022/06/01 15:04:10;;;;;;;;;;;17.90;99.90;;;;;;10328646;28;84079;-51
2022/06/01 15:09:12;;;;;;;;;;;17.80;99.90;;;;;;10329148;28;84288;-48
2022/06/01 15:14:13;;;;;;;;;;;17.60;99.90;;;;;;10326172;28;84271;-52
2022/06/01 15:19:16;;;;;;;;;;;17.60;99.90;;;;;;10331745;28;84776;-49
2022/06/01 15:24:17;;;;;;;;;;;17.40;1.00;;;;;;10326729;28;84281;-56
2022/06/01 15:39:59;;;;;;;;;;;16.80;1.00;;;;;;10320332;28;84891;-52
2022/06/01 15:45:00;;;;;;;;;;;16.70;1.00;;;;;;10320901;28;85562;-49
2022/06/01 15:50:01;;;;;;;;;;;16.60;1.00;;;;;;10321343;28;84780;-50
2022/06/01 15:55:02;;;;;;;;;;;17.00;1.00;;;;;;10325634;28;84384;-47
2022/06/01 16:00:03;;;;;;;;;;;17.30;1.00;;;;;;10325685;28;84866;-55
2022/06/01 16:05:13;;;;;;;;;;;17.60;1.00;;;;;;10322860;28;84733;-51
2022/06/01 16:10:14;;;;;;;;;;;17.70;1.00;;;;;;10328062;28;84906;-50
2022/06/01 16:15:14;;;;;;;;;;;17.10;99.90;;;;;;10328294;28;84141;-47
2022/06/01 16:20:16;;;;;;;;;;;16.70;1.00;;;;;;10306617;28;86775;-57
2022/06/01 16:25:16;;;;;;;;;;;16.00;99.90;;;;;;10327755;28;84246;-48
2022/06/01 16:30:17;;;;;;;;;;;15.60;1.00;;;;;;10309237;28;85888;-49
2022/06/01 16:35:20;;;;;;;;;;;15.20;1.00;;;;;;10325074;28;84884;-51
2022/06/01 16:40:23;;;;;;;;;;;14.50;1.00;;;;;;10320675;28;84866;-47
2022/06/01 16:45:25;;;;;;;;;;;14.20;1.00;;;;;;10313368;28;84265;-57
2022/06/01 16:50:26;;;;;;;;;;;14.20;1.00;;;;;;10317006;28;86054;-48
2022/06/01 16:55:27;;;;;;;;;;;14.50;1.00;;;;;;10326216;28;84924;-55
2022/06/01 17:00:28;;;;;;;;;;;14.30;1.00;;;;;;10323724;28;84203;-52
2022/06/01 17:05:29;;;;;;;;;;;14.00;1.00;;;;;;10324706;28;84125;-48
2022/06/01 17:10:30;;;;;;;;;;;14.00;1.00;;;;;;10300329;28;84986;-51
2022/06/01 17:15:31;;;;;;;;;;;13.90;1.00;;;;;;10302965;28;84112;-50
2022/06/01 17:20:33;;;;;;;;;;;14.00;1.00;;;;;;10304991;28;86035;-55
2022/06/01 17:25:34;;;;;;;;;;;14.00;1.00;;;;;;10319598;28;84813;-53
2022/06/01 17:30:35;;;;;;;;;;;14.10;1.30;;;;;;10300022;28;86869;-58
2022/06/01 17:35:36;;;;;;;;;;;14.30;1.00;;;;;;10308003;28;84982;-53
2022/06/01 17:40:37;;;;;;;;;;;14.50;1.00;;;;;;10299766;28;84838;-60
2022/06/01 17:45:38;;;;;;;;;;;14.70;1.00;;;;;;10316101;28;84449;-59
2022/06/01 17:50:38;;;;;;;;;;;14.90;1.00;;;;;;10322146;28;84931;-55
2022/06/01 17:55:39;;;;;;;;;;;15.00;1.00;;;;;;10314959;28;84976;-55
2022/06/01 18:00:40;;;;;;;;;;;15.10;1.00;;;;;;10319951;28;84375;-58
2022/06/01 18:05:41;;;;;;;;;;;15.10;1.00;;;;;;10317517;28;84944;-56
2022/06/01 18:10:42;;;;;;;;;;;15.10;1.00;;;;;;10317897;28;84296;-58
2022/06/01 18:15:44;;;;;;;;;;;15.00;1.00;;;;;;10310288;28;84950;-55
2022/06/01 18:20:49;;;;;;;;;;;14.90;1.00;;;;;;10298790;28;84938;-52
2022/06/01 18:25:57;;;;;;;;;;;14.50;1.00;;;;;;10320994;28;85085;-48
2022/06/01 18:30:59;;;;;;;;;;;14.50;1.00;;;;;;10322129;28;85089;-55
2022/06/01 18:36:02;;;;;;;;;;;14.30;1.00;;;;;;10306915;28;85060;-55
2022/06/01 18:41:04;;;;;;;;;;;14.20;1.00;;;;;;10302939;28;85081;-53
2022/06/01 18:46:06;;;;;;;;;;;14.00;1.00;;;;;;10320179;28;84237;-58
2022/06/01 18:51:10;;;;;;;;;;;13.90;1.00;;;;;;10318868;28;84747;-57
2022/06/01 18:56:11;;;;;;;;;;;14.00;1.00;;;;;;10321173;28;84310;-54
2022/06/01 19:06:30;;;;;;;;;;;13.90;1.00;;;;;;10318966;28;84291;-52
2022/06/01 19:11:32;;;;;;;;;;;13.90;1.00;;;;;;10325050;28;84928;-54
2022/06/01 19:16:35;;;;;;;;;;;13.80;1.00;;;;;;10329495;28;84940;-52
2022/06/01 19:21:39;;;;;;;;;;;13.80;22.90;;;;;;10327158;28;84170;-52
2022/06/01 19:26:42;;;;;;;;;;;13.70;1.00;;;;;;10321803;28;86764;-51
2022/06/01 19:31:43;;;;;;;;;;;13.70;8.40;;;;;;10325003;28;84759;-58
2022/06/01 19:47:22;;;;;;;;;;;13.50;66.30;;;;;;10324273;28;84126;-47
2022/06/01 19:52:23;;;;;;;;;;;13.40;92.40;;;;;;10306004;28;85108;-53
2022/06/01 19:57:24;;;;;;;;;;;13.30;62.70;;;;;;10326608;28;84322;-52
2022/06/01 20:02:25;;;;;;;;;;;13.30;96.00;;;;;;10325674;28;84859;-51
2022/06/01 20:07:29;;;;;;;;;;;13.20;90.80;;;;;;10310262;28;84215;-54
2022/06/01 20:17:49;;;;;;;;;;;13.10;99.90;;;;;;10323955;28;84699;-52
2022/06/01 20:22:54;;;;;;;;;;;13.00;99.90;;;;;;10303682;28;84778;-56
2022/06/01 20:27:55;;;;;;;;;;;13.00;99.90;;;;;;10321842;28;85044;-56
2022/06/01 20:32:56;;;;;;;;;;;12.90;99.90;;;;;;10308529;28;84774;-53
2022/06/01 20:37:57;;;;;;;;;;;12.90;99.90;;;;;;10324528;28;84792;-57
2022/06/01 20:42:57;;;;;;;;;;;12.80;99.90;;;;;;10326227;28;84913;-52
2022/06/01 20:47:58;;;;;;;;;;;12.80;93.30;;;;;;10306461;28;84777;-48
2022/06/01 20:52:58;;;;;;;;;;;12.70;39.00;;;;;;10368807;22;84913;-56
2022/06/01 20:58:01;;;;;;;;;;;12.70;12.00;;;;;;10361591;28;85395;-56
2022/06/01 21:03:03;;;;;;;;;;;12.60;1.00;;;;;;10376120;28;84157;-56
2022/06/01 21:08:04;;;;;;;;;;;12.60;1.00;;;;;;10388705;28;86547;-55
2022/06/01 21:13:05;;;;;;;;;;;12.50;22.40;;;;;;10394782;28;84104;-54
2022/06/01 21:18:06;;;;;;;;;;;12.50;29.00;;;;;;10407951;28;84871;-50
2022/06/01 21:23:07;;;;;;;;;;;12.40;1.00;;;;;;10407406;28;84285;-53
2022/06/01 21:28:07;;;;;;;;;;;12.40;1.00;;;;;;10410034;28;85034;-55
2022/06/01 21:33:08;;;;;;;;;;;12.30;10.30;;;;;;10408690;28;84219;-54
2022/06/01 21:38:09;;;;;;;;;;;12.20;27.30;;;;;;10399763;28;84741;-54
2022/06/01 21:43:10;;;;;;;;;;;12.20;56.40;;;;;;10406965;28;84932;-52
2022/06/01 21:48:10;;;;;;;;;;;12.10;53.40;;;;;;10409635;28;84158;-54
2022/06/01 21:53:14;;;;;;;;;;;12.10;42.10;;;;;;10407072;28;85678;-55
2022/06/01 21:58:15;;;;;;;;;;;12.00;53.20;;;;;;10408780;28;84059;-54
2022/06/01 22:03:17;;;;;;;;;;;12.00;29.90;;;;;;10408860;28;84685;-52
2022/06/01 22:08:18;;;;;;;;;;;11.90;73.90;;;;;;10403065;28;84927;-53
2022/06/01 22:13:18;;;;;;;;;;;11.90;73.60;;;;;;10405708;28;84166;-50
2022/06/01 22:18:19;;;;;;;;;;;11.80;64.00;;;;;;10405958;28;84250;-52
2022/06/01 22:23:20;;;;;;;;;;;11.80;62.50;;;;;;10406837;28;87137;-55
2022/06/01 22:28:20;;;;;;;;;;;11.70;76.00;;;;;;10408556;28;85004;-56
2022/06/01 22:33:21;;;;;;;;;;;11.60;92.30;;;;;;10365461;28;86918;-56
2022/06/01 22:38:22;;;;;;;;;;;11.50;99.90;;;;;;10367698;28;84129;-55
2022/06/01 22:43:22;;;;;;;;;;;11.40;99.90;;;;;;10391060;28;86153;-52
2022/06/01 22:48:25;;;;;;;;;;;11.50;99.90;;;;;;10415605;28;84207;-55
2022/06/01 22:53:37;;;;;;;;;;;11.50;99.90;;;;;;10415043;28;84119;-52
2022/06/01 22:58:38;;;;;;;;;;;11.40;99.90;;;;;;10413924;28;86238;-55
2022/06/01 23:03:39;;;;;;;;;;;11.30;99.90;;;;;;10393402;28;84210;-52
2022/06/01 23:08:39;;;;;;;;;;;11.30;99.90;;;;;;10413089;28;84329;-54
2022/06/01 23:13:40;;;;;;;;;;;11.20;99.90;;;;;;10415050;28;84152;-54
2022/06/01 23:18:40;;;;;;;;;;;11.30;99.90;;;;;;10414089;28;84296;-54
2022/06/01 23:23:41;;;;;;;;;;;11.20;99.90;;;;;;10414890;28;84991;-51
2022/06/01 23:28:42;;;;;;;;;;;11.20;99.90;;;;;;10415247;28;84717;-52
2022/06/01 23:33:56;;;;;;;;;;;11.10;99.90;;;;;;10412728;28;84133;-52
2022/06/01 23:39:09;;;;;;;;;;;11.10;99.90;;;;;;10414480;28;85026;-52
2022/06/01 23:44:11;;;;;;;;;;;11.10;99.90;;;;;;10411735;28;84457;-55
2022/06/01 23:49:14;;;;;;;;;;;11.10;99.90;;;;;;10411277;28;84259;-51
2022/06/01 23:54:27;;;;;;;;;;;11.00;99.90;;;;;;10413660;28;84850;-55
2022/06/01 23:59:46;;;;;;;;;;;11.00;99.90;;;;;;10413004;28;84979;-58
